sensor_id;sensor_type;location;lat;lon;timestamp;P1;durP1;ratioP1;P2;durP2;ratioP2
17650;SDS011;26663;59.302;18.082;2023-07-13T00:01:10;3.17;;;2.95;;
17650;SDS011;26663;59.302;18.082;2023-07-13T00:04:14;3.60;;;3.33;;
17650;SDS011;26663;59.302;18.082;2023-07-13T00:07:19;3.42;;;3.25;;
17650;SDS011;26663;59.302;18.082;2023-07-13T00:10:23;3.10;;;2.90;;
17650;SDS011;26663;59.302;18.082;2023-07-13T00:13:29;3.20;;;3.10;;
17650;SDS011;26663;59.302;18.082;2023-07-13T00:16:34;2.95;;;2.80;;
17650;SDS011;26663;59.302;18.082;2023-07-13T00:19:39;3.08;;;2.97;;
17650;SDS011;26663;59.302;18.082;2023-07-13T00:22:43;3.10;;;2.90;;
17650;SDS011;26663;59.302;18.082;2023-07-13T00:25:47;3.28;;;3.08;;
17650;SDS011;26663;59.302;18.082;2023-07-13T00:28:55;2.70;;;2.55;;
17650;SDS011;26663;59.302;18.082;2023-07-13T00:31:59;3.05;;;2.97;;
17650;SDS011;26663;59.302;18.082;2023-07-13T00:35:04;6.38;;;3.35;;
17650;SDS011;26663;59.302;18.082;2023-07-13T00:38:08;3.22;;;3.05;;
17650;SDS011;26663;59.302;18.082;2023-07-13T00:41:12;3.40;;;3.30;;
17650;SDS011;26663;59.302;18.082;2023-07-13T00:44:19;3.60;;;3.38;;
17650;SDS011;26663;59.302;18.082;2023-07-13T00:47:25;3.00;;;2.80;;
17650;SDS011;26663;59.302;18.082;2023-07-13T00:50:29;3.20;;;2.95;;
17650;SDS011;26663;59.302;18.082;2023-07-13T00:53:33;3.13;;;3.13;;
17650;SDS011;26663;59.302;18.082;2023-07-13T00:56:38;3.70;;;3.42;;
17650;SDS011;26663;59.302;18.082;2023-07-13T00:59:45;3.08;;;2.97;;
17650;SDS011;26663;59.302;18.082;2023-07-13T01:02:50;3.72;;;3.03;;
17650;SDS011;26663;59.302;18.082;2023-07-13T01:05:54;4.80;;;3.10;;
17650;SDS011;26663;59.302;18.082;2023-07-13T01:09:00;3.58;;;3.33;;
17650;SDS011;26663;59.302;18.082;2023-07-13T01:12:06;2.88;;;2.70;;
17650;SDS011;26663;59.302;18.082;2023-07-13T01:18:31;2.70;;;2.70;;
17650;SDS011;26663;59.302;18.082;2023-07-13T01:21:37;3.08;;;2.92;;
17650;SDS011;26663;59.302;18.082;2023-07-13T01:24:46;5.73;;;2.70;;
17650;SDS011;26663;59.302;18.082;2023-07-13T01:27:51;3.10;;;2.83;;
17650;SDS011;26663;59.302;18.082;2023-07-13T01:30:56;2.83;;;2.63;;
17650;SDS011;26663;59.302;18.082;2023-07-13T01:34:01;2.97;;;2.85;;
17650;SDS011;26663;59.302;18.082;2023-07-13T01:37:07;2.55;;;2.55;;
17650;SDS011;26663;59.302;18.082;2023-07-13T01:40:12;2.63;;;2.53;;
17650;SDS011;26663;59.302;18.082;2023-07-13T01:43:16;2.60;;;2.60;;
17650;SDS011;26663;59.302;18.082;2023-07-13T01:46:21;2.70;;;2.60;;
17650;SDS011;26663;59.302;18.082;2023-07-13T01:49:26;2.78;;;2.58;;
17650;SDS011;26663;59.302;18.082;2023-07-13T01:52:31;3.83;;;3.40;;
17650;SDS011;26663;59.302;18.082;2023-07-13T01:55:35;2.88;;;2.80;;
17650;SDS011;26663;59.302;18.082;2023-07-13T01:58:40;3.97;;;3.20;;
17650;SDS011;26663;59.302;18.082;2023-07-13T02:01:45;2.88;;;2.88;;
17650;SDS011;26663;59.302;18.082;2023-07-13T02:04:50;4.40;;;2.75;;
17650;SDS011;26663;59.302;18.082;2023-07-13T02:07:57;2.95;;;2.75;;
17650;SDS011;26663;59.302;18.082;2023-07-13T02:11:02;4.30;;;2.83;;
17650;SDS011;26663;59.302;18.082;2023-07-13T02:14:07;3.08;;;2.97;;
17650;SDS011;26663;59.302;18.082;2023-07-13T02:17:11;3.30;;;3.20;;
17650;SDS011;26663;59.302;18.082;2023-07-13T02:20:15;3.22;;;3.03;;
17650;SDS011;26663;59.302;18.082;2023-07-13T02:23:21;3.20;;;3.10;;
17650;SDS011;26663;59.302;18.082;2023-07-13T02:26:25;3.00;;;2.80;;
17650;SDS011;26663;59.302;18.082;2023-07-13T02:29:30;7.50;;;2.85;;
17650;SDS011;26663;59.302;18.082;2023-07-13T02:32:34;4.13;;;3.13;;
17650;SDS011;26663;59.302;18.082;2023-07-13T02:35:38;3.55;;;3.28;;
17650;SDS011;26663;59.302;18.082;2023-07-13T02:38:44;5.60;;;3.38;;
17650;SDS011;26663;59.302;18.082;2023-07-13T02:41:48;2.90;;;2.80;;
17650;SDS011;26663;59.302;18.082;2023-07-13T02:44:53;3.60;;;3.28;;
17650;SDS011;26663;59.302;18.082;2023-07-13T02:47:57;3.55;;;3.20;;
17650;SDS011;26663;59.302;18.082;2023-07-13T02:51:01;3.25;;;3.05;;
17650;SDS011;26663;59.302;18.082;2023-07-13T02:54:08;3.25;;;3.05;;
17650;SDS011;26663;59.302;18.082;2023-07-13T02:57:13;2.80;;;2.75;;
17650;SDS011;26663;59.302;18.082;2023-07-13T03:00:18;3.20;;;2.90;;
17650;SDS011;26663;59.302;18.082;2023-07-13T03:03:22;3.95;;;3.65;;
17650;SDS011;26663;59.302;18.082;2023-07-13T03:06:27;4.22;;;2.97;;
17650;SDS011;26663;59.302;18.082;2023-07-13T03:09:35;3.47;;;3.28;;
17650;SDS011;26663;59.302;18.082;2023-07-13T03:12:42;3.00;;;2.90;;
17650;SDS011;26663;59.302;18.082;2023-07-13T03:15:55;5.72;;;3.65;;
17650;SDS011;26663;59.302;18.082;2023-07-13T03:18:59;6.85;;;3.72;;
17650;SDS011;26663;59.302;18.082;2023-07-13T03:22:04;3.42;;;3.13;;
17650;SDS011;26663;59.302;18.082;2023-07-13T03:25:11;3.30;;;2.97;;
17650;SDS011;26663;59.302;18.082;2023-07-13T03:28:17;6.68;;;3.20;;
17650;SDS011;26663;59.302;18.082;2023-07-13T03:31:29;3.45;;;3.20;;
17650;SDS011;26663;59.302;18.082;2023-07-13T03:34:34;3.58;;;3.28;;
17650;SDS011;26663;59.302;18.082;2023-07-13T03:37:39;5.88;;;3.97;;
17650;SDS011;26663;59.302;18.082;2023-07-13T03:40:51;4.40;;;2.92;;
17650;SDS011;26663;59.302;18.082;2023-07-13T03:43:56;3.47;;;3.33;;
17650;SDS011;26663;59.302;18.082;2023-07-13T03:47:02;3.67;;;3.40;;
17650;SDS011;26663;59.302;18.082;2023-07-13T03:50:08;3.38;;;2.78;;
17650;SDS011;26663;59.302;18.082;2023-07-13T03:53:12;4.45;;;3.50;;
17650;SDS011;26663;59.302;18.082;2023-07-13T03:56:18;3.90;;;2.75;;
17650;SDS011;26663;59.302;18.082;2023-07-13T03:59:23;6.03;;;3.22;;
17650;SDS011;26663;59.302;18.082;2023-07-13T04:02:27;4.25;;;3.22;;
17650;SDS011;26663;59.302;18.082;2023-07-13T04:05:31;5.07;;;3.58;;
17650;SDS011;26663;59.302;18.082;2023-07-13T04:08:36;3.42;;;3.33;;
17650;SDS011;26663;59.302;18.082;2023-07-13T04:11:42;3.80;;;3.22;;
17650;SDS011;26663;59.302;18.082;2023-07-13T04:14:46;5.53;;;3.95;;
17650;SDS011;26663;59.302;18.082;2023-07-13T04:17:50;5.78;;;3.25;;
17650;SDS011;26663;59.302;18.082;2023-07-13T04:20:55;7.07;;;3.70;;
17650;SDS011;26663;59.302;18.082;2023-07-13T04:23:59;4.13;;;3.20;;
17650;SDS011;26663;59.302;18.082;2023-07-13T04:27:06;9.07;;;3.83;;
17650;SDS011;26663;59.302;18.082;2023-07-13T04:30:10;3.10;;;2.97;;
17650;SDS011;26663;59.302;18.082;2023-07-13T04:33:15;7.20;;;5.13;;
17650;SDS011;26663;59.302;18.082;2023-07-13T04:36:20;3.67;;;3.30;;
17650;SDS011;26663;59.302;18.082;2023-07-13T04:39:24;3.67;;;3.40;;
17650;SDS011;26663;59.302;18.082;2023-07-13T04:42:30;3.97;;;3.63;;
17650;SDS011;26663;59.302;18.082;2023-07-13T04:45:36;6.22;;;3.20;;
17650;SDS011;26663;59.302;18.082;2023-07-13T04:48:40;3.78;;;3.40;;
17650;SDS011;26663;59.302;18.082;2023-07-13T04:51:45;6.00;;;2.90;;
17650;SDS011;26663;59.302;18.082;2023-07-13T04:54:49;3.47;;;3.17;;
17650;SDS011;26663;59.302;18.082;2023-07-13T04:57:55;4.18;;;3.28;;
17650;SDS011;26663;59.302;18.082;2023-07-13T05:01:00;4.45;;;3.65;;
17650;SDS011;26663;59.302;18.082;2023-07-13T05:04:05;6.88;;;3.30;;
17650;SDS011;26663;59.302;18.082;2023-07-13T05:07:10;5.65;;;3.10;;
17650;SDS011;26663;59.302;18.082;2023-07-13T05:10:14;4.20;;;2.95;;
17650;SDS011;26663;59.302;18.082;2023-07-13T05:13:20;5.65;;;3.20;;
17650;SDS011;26663;59.302;18.082;2023-07-13T05:16:27;10.32;;;2.90;;
17650;SDS011;26663;59.302;18.082;2023-07-13T05:19:32;4.60;;;2.78;;
17650;SDS011;26663;59.302;18.082;2023-07-13T05:22:36;7.00;;;2.80;;
17650;SDS011;26663;59.302;18.082;2023-07-13T05:25:40;3.33;;;2.78;;
17650;SDS011;26663;59.302;18.082;2023-07-13T05:28:46;3.72;;;2.88;;
17650;SDS011;26663;59.302;18.082;2023-07-13T05:31:50;4.38;;;2.80;;
17650;SDS011;26663;59.302;18.082;2023-07-13T05:34:55;9.60;;;2.80;;
17650;SDS011;26663;59.302;18.082;2023-07-13T05:37:59;4.25;;;2.63;;
17650;SDS011;26663;59.302;18.082;2023-07-13T05:41:03;3.10;;;2.90;;
17650;SDS011;26663;59.302;18.082;2023-07-13T05:44:09;4.35;;;2.42;;
17650;SDS011;26663;59.302;18.082;2023-07-13T05:47:13;6.30;;;2.67;;
17650;SDS011;26663;59.302;18.082;2023-07-13T05:50:18;3.70;;;2.20;;
17650;SDS011;26663;59.302;18.082;2023-07-13T05:53:23;4.00;;;2.47;;
17650;SDS011;26663;59.302;18.082;2023-07-13T05:56:27;2.55;;;2.35;;
17650;SDS011;26663;59.302;18.082;2023-07-13T05:59:33;3.10;;;2.50;;
17650;SDS011;26663;59.302;18.082;2023-07-13T06:02:37;3.47;;;2.40;;
17650;SDS011;26663;59.302;18.082;2023-07-13T06:05:42;2.80;;;2.10;;
17650;SDS011;26663;59.302;18.082;2023-07-13T06:08:46;4.10;;;1.92;;
17650;SDS011;26663;59.302;18.082;2023-07-13T06:11:51;2.72;;;2.50;;
17650;SDS011;26663;59.302;18.082;2023-07-13T06:14:56;2.58;;;2.15;;
17650;SDS011;26663;59.302;18.082;2023-07-13T06:18:00;2.00;;;1.90;;
17650;SDS011;26663;59.302;18.082;2023-07-13T06:21:06;3.45;;;2.30;;
17650;SDS011;26663;59.302;18.082;2023-07-13T06:24:11;4.40;;;2.05;;
17650;SDS011;26663;59.302;18.082;2023-07-13T06:27:15;2.60;;;2.13;;
17650;SDS011;26663;59.302;18.082;2023-07-13T06:30:21;2.40;;;2.17;;
17650;SDS011;26663;59.302;18.082;2023-07-13T06:33:25;2.38;;;2.20;;
17650;SDS011;26663;59.302;18.082;2023-07-13T06:36:30;8.10;;;2.42;;
17650;SDS011;26663;59.302;18.082;2023-07-13T06:39:36;8.98;;;2.40;;
17650;SDS011;26663;59.302;18.082;2023-07-13T06:42:40;9.60;;;2.38;;
17650;SDS011;26663;59.302;18.082;2023-07-13T06:45:46;3.20;;;2.05;;
17650;SDS011;26663;59.302;18.082;2023-07-13T06:48:52;4.68;;;2.38;;
17650;SDS011;26663;59.302;18.082;2023-07-13T06:51:56;3.60;;;2.10;;
17650;SDS011;26663;59.302;18.082;2023-07-13T06:55:00;2.33;;;2.10;;
17650;SDS011;26663;59.302;18.082;2023-07-13T06:58:05;6.25;;;2.00;;
17650;SDS011;26663;59.302;18.082;2023-07-13T07:01:13;4.55;;;1.95;;
17650;SDS011;26663;59.302;18.082;2023-07-13T07:04:17;2.60;;;2.17;;
17650;SDS011;26663;59.302;18.082;2023-07-13T07:07:23;2.65;;;1.85;;
17650;SDS011;26663;59.302;18.082;2023-07-13T07:10:28;5.80;;;2.25;;
17650;SDS011;26663;59.302;18.082;2023-07-13T07:13:33;3.60;;;1.98;;
17650;SDS011;26663;59.302;18.082;2023-07-13T07:16:39;4.95;;;2.10;;
17650;SDS011;26663;59.302;18.082;2023-07-13T07:19:43;3.70;;;1.92;;
17650;SDS011;26663;59.302;18.082;2023-07-13T07:22:47;4.57;;;2.20;;
17650;SDS011;26663;59.302;18.082;2023-07-13T07:25:52;4.60;;;2.05;;
17650;SDS011;26663;59.302;18.082;2023-07-13T07:28:56;6.68;;;2.03;;
17650;SDS011;26663;59.302;18.082;2023-07-13T07:32:05;2.90;;;1.88;;
17650;SDS011;26663;59.302;18.082;2023-07-13T07:35:29;2.33;;;1.80;;
17650;SDS011;26663;59.302;18.082;2023-07-13T07:38:39;2.70;;;1.73;;
17650;SDS011;26663;59.302;18.082;2023-07-13T07:41:43;6.18;;;1.83;;
17650;SDS011;26663;59.302;18.082;2023-07-13T07:44:58;2.00;;;1.80;;
17650;SDS011;26663;59.302;18.082;2023-07-13T07:48:05;5.50;;;2.58;;
17650;SDS011;26663;59.302;18.082;2023-07-13T07:51:09;2.10;;;1.90;;
17650;SDS011;26663;59.302;18.082;2023-07-13T07:54:14;1.77;;;1.67;;
17650;SDS011;26663;59.302;18.082;2023-07-13T07:57:38;2.78;;;1.80;;
17650;SDS011;26663;59.302;18.082;2023-07-13T08:00:45;4.13;;;1.90;;
17650;SDS011;26663;59.302;18.082;2023-07-13T08:03:54;3.80;;;2.00;;
17650;SDS011;26663;59.302;18.082;2023-07-13T08:07:01;2.88;;;1.90;;
17650;SDS011;26663;59.302;18.082;2023-07-13T08:10:06;2.50;;;1.80;;
17650;SDS011;26663;59.302;18.082;2023-07-13T08:13:11;2.08;;;1.83;;
17650;SDS011;26663;59.302;18.082;2023-07-13T08:16:16;2.10;;;1.75;;
17650;SDS011;26663;59.302;18.082;2023-07-13T08:19:21;2.60;;;1.73;;
17650;SDS011;26663;59.302;18.082;2023-07-13T08:22:26;3.13;;;1.90;;
17650;SDS011;26663;59.302;18.082;2023-07-13T08:25:30;2.72;;;1.83;;
17650;SDS011;26663;59.302;18.082;2023-07-13T08:28:35;6.70;;;1.85;;
17650;SDS011;26663;59.302;18.082;2023-07-13T08:31:40;3.35;;;1.80;;
17650;SDS011;26663;59.302;18.082;2023-07-13T08:34:45;2.05;;;1.90;;
17650;SDS011;26663;59.302;18.082;2023-07-13T08:37:49;3.20;;;2.10;;
17650;SDS011;26663;59.302;18.082;2023-07-13T08:40:55;5.40;;;1.98;;
17650;SDS011;26663;59.302;18.082;2023-07-13T08:43:59;7.20;;;2.75;;
17650;SDS011;26663;59.302;18.082;2023-07-13T08:47:05;5.30;;;1.80;;
17650;SDS011;26663;59.302;18.082;2023-07-13T08:50:13;10.50;;;1.95;;
17650;SDS011;26663;59.302;18.082;2023-07-13T08:53:18;2.50;;;2.05;;
17650;SDS011;26663;59.302;18.082;2023-07-13T08:56:24;6.93;;;1.90;;
17650;SDS011;26663;59.302;18.082;2023-07-13T08:59:29;3.70;;;1.70;;
17650;SDS011;26663;59.302;18.082;2023-07-13T09:02:39;1.88;;;1.77;;
17650;SDS011;26663;59.302;18.082;2023-07-13T09:05:47;1.95;;;1.85;;
17650;SDS011;26663;59.302;18.082;2023-07-13T09:08:55;1.73;;;1.58;;
17650;SDS011;26663;59.302;18.082;2023-07-13T09:12:05;1.45;;;1.45;;
17650;SDS011;26663;59.302;18.082;2023-07-13T09:15:24;1.92;;;1.83;;
17650;SDS011;26663;59.302;18.082;2023-07-13T09:18:31;1.75;;;1.60;;
17650;SDS011;26663;59.302;18.082;2023-07-13T09:21:37;2.30;;;1.67;;
17650;SDS011;26663;59.302;18.082;2023-07-13T09:24:47;1.65;;;1.55;;
17650;SDS011;26663;59.302;18.082;2023-07-13T09:27:55;4.05;;;1.60;;
17650;SDS011;26663;59.302;18.082;2023-07-13T09:31:01;1.67;;;1.63;;
17650;SDS011;26663;59.302;18.082;2023-07-13T09:34:08;5.07;;;1.60;;
17650;SDS011;26663;59.302;18.082;2023-07-13T09:37:14;4.97;;;1.90;;
17650;SDS011;26663;59.302;18.082;2023-07-13T09:40:20;1.52;;;1.52;;
17650;SDS011;26663;59.302;18.082;2023-07-13T09:43:26;10.27;;;1.98;;
17650;SDS011;26663;59.302;18.082;2023-07-13T09:46:31;6.00;;;1.65;;
17650;SDS011;26663;59.302;18.082;2023-07-13T09:49:35;5.95;;;1.85;;
17650;SDS011;26663;59.302;18.082;2023-07-13T09:52:42;5.47;;;1.80;;
17650;SDS011;26663;59.302;18.082;2023-07-13T09:55:47;3.35;;;1.80;;
17650;SDS011;26663;59.302;18.082;2023-07-13T09:58:55;5.55;;;1.70;;
17650;SDS011;26663;59.302;18.082;2023-07-13T10:02:00;4.10;;;1.50;;
17650;SDS011;26663;59.302;18.082;2023-07-13T10:05:10;6.38;;;2.13;;
17650;SDS011;26663;59.302;18.082;2023-07-13T10:08:16;4.63;;;2.20;;
17650;SDS011;26663;59.302;18.082;2023-07-13T10:11:21;1.88;;;1.77;;
17650;SDS011;26663;59.302;18.082;2023-07-13T10:14:26;4.63;;;1.88;;
17650;SDS011;26663;59.302;18.082;2023-07-13T10:17:31;3.63;;;1.60;;
17650;SDS011;26663;59.302;18.082;2023-07-13T10:20:36;2.20;;;1.75;;
17650;SDS011;26663;59.302;18.082;2023-07-13T10:23:43;1.58;;;1.58;;
17650;SDS011;26663;59.302;18.082;2023-07-13T10:26:49;7.30;;;1.98;;
17650;SDS011;26663;59.302;18.082;2023-07-13T10:30:00;9.02;;;1.50;;
17650;SDS011;26663;59.302;18.082;2023-07-13T10:33:10;2.13;;;1.92;;
17650;SDS011;26663;59.302;18.082;2023-07-13T10:36:16;4.68;;;1.80;;
17650;SDS011;26663;59.302;18.082;2023-07-13T10:39:23;1.67;;;1.58;;
17650;SDS011;26663;59.302;18.082;2023-07-13T10:42:30;1.63;;;1.40;;
17650;SDS011;26663;59.302;18.082;2023-07-13T10:45:36;3.53;;;1.80;;
17650;SDS011;26663;59.302;18.082;2023-07-13T10:48:42;4.10;;;1.70;;
17650;SDS011;26663;59.302;18.082;2023-07-13T10:51:47;3.15;;;1.63;;
17650;SDS011;26663;59.302;18.082;2023-07-13T10:54:55;1.75;;;1.40;;
17650;SDS011;26663;59.302;18.082;2023-07-13T10:58:01;2.55;;;1.48;;
17650;SDS011;26663;59.302;18.082;2023-07-13T11:01:09;1.73;;;1.63;;
17650;SDS011;26663;59.302;18.082;2023-07-13T11:04:15;3.13;;;1.40;;
17650;SDS011;26663;59.302;18.082;2023-07-13T11:07:20;3.25;;;1.58;;
17650;SDS011;26663;59.302;18.082;2023-07-13T11:13:59;2.28;;;2.08;;
17650;SDS011;26663;59.302;18.082;2023-07-13T11:17:24;3.88;;;1.63;;
17650;SDS011;26663;59.302;18.082;2023-07-13T11:20:36;4.53;;;1.70;;
17650;SDS011;26663;59.302;18.082;2023-07-13T11:23:41;4.43;;;1.55;;
17650;SDS011;26663;59.302;18.082;2023-07-13T11:26:50;1.20;;;1.20;;
17650;SDS011;26663;59.302;18.082;2023-07-13T11:30:07;19.05;;;2.35;;
17650;SDS011;26663;59.302;18.082;2023-07-13T11:33:17;7.15;;;1.60;;
17650;SDS011;26663;59.302;18.082;2023-07-13T11:36:23;3.25;;;1.60;;
17650;SDS011;26663;59.302;18.082;2023-07-13T11:39:28;4.13;;;1.88;;
17650;SDS011;26663;59.302;18.082;2023-07-13T11:42:34;2.92;;;1.40;;
17650;SDS011;26663;59.302;18.082;2023-07-13T11:45:40;3.30;;;1.60;;
17650;SDS011;26663;59.302;18.082;2023-07-13T11:48:49;2.65;;;1.63;;
17650;SDS011;26663;59.302;18.082;2023-07-13T11:51:54;2.47;;;1.60;;
17650;SDS011;26663;59.302;18.082;2023-07-13T11:54:59;3.15;;;1.40;;
17650;SDS011;26663;59.302;18.082;2023-07-13T11:58:04;2.80;;;1.70;;
17650;SDS011;26663;59.302;18.082;2023-07-13T12:01:14;1.92;;;1.60;;
17650;SDS011;26663;59.302;18.082;2023-07-13T12:04:21;4.75;;;1.60;;
17650;SDS011;26663;59.302;18.082;2023-07-13T12:07:28;3.13;;;1.58;;
17650;SDS011;26663;59.302;18.082;2023-07-13T12:10:32;1.98;;;1.70;;
17650;SDS011;26663;59.302;18.082;2023-07-13T12:13:37;1.83;;;1.55;;
17650;SDS011;26663;59.302;18.082;2023-07-13T12:16:43;2.78;;;1.58;;
17650;SDS011;26663;59.302;18.082;2023-07-13T12:19:49;6.57;;;1.80;;
17650;SDS011;26663;59.302;18.082;2023-07-13T12:22:54;2.90;;;1.85;;
17650;SDS011;26663;59.302;18.082;2023-07-13T12:26:01;1.65;;;1.55;;
17650;SDS011;26663;59.302;18.082;2023-07-13T12:29:06;1.73;;;1.55;;
17650;SDS011;26663;59.302;18.082;2023-07-13T12:32:14;3.50;;;1.90;;
17650;SDS011;26663;59.302;18.082;2023-07-13T12:35:21;1.60;;;1.50;;
17650;SDS011;26663;59.302;18.082;2023-07-13T12:38:25;1.63;;;1.45;;
17650;SDS011;26663;59.302;18.082;2023-07-13T12:41:29;3.10;;;1.45;;
17650;SDS011;26663;59.302;18.082;2023-07-13T12:44:34;1.50;;;1.40;;
17650;SDS011;26663;59.302;18.082;2023-07-13T12:47:47;9.15;;;1.60;;
17650;SDS011;26663;59.302;18.082;2023-07-13T12:50:53;2.08;;;1.20;;
17650;SDS011;26663;59.302;18.082;2023-07-13T12:53:59;7.45;;;1.50;;
17650;SDS011;26663;59.302;18.082;2023-07-13T12:57:12;6.75;;;1.50;;
17650;SDS011;26663;59.302;18.082;2023-07-13T13:00:24;5.35;;;2.00;;
17650;SDS011;26663;59.302;18.082;2023-07-13T13:03:31;2.83;;;1.58;;
17650;SDS011;26663;59.302;18.082;2023-07-13T13:06:36;1.20;;;1.20;;
17650;SDS011;26663;59.302;18.082;2023-07-13T13:09:40;1.30;;;1.30;;
17650;SDS011;26663;59.302;18.082;2023-07-13T13:12:45;1.95;;;1.35;;
17650;SDS011;26663;59.302;18.082;2023-07-13T13:15:49;2.40;;;1.48;;
17650;SDS011;26663;59.302;18.082;2023-07-13T13:18:56;1.55;;;1.38;;
17650;SDS011;26663;59.302;18.082;2023-07-13T13:22:00;1.17;;;1.17;;
17650;SDS011;26663;59.302;18.082;2023-07-13T13:25:06;2.30;;;1.20;;
17650;SDS011;26663;59.302;18.082;2023-07-13T13:28:13;1.58;;;1.48;;
17650;SDS011;26663;59.302;18.082;2023-07-13T13:31:18;2.10;;;1.50;;
17650;SDS011;26663;59.302;18.082;2023-07-13T13:34:24;3.85;;;1.67;;
17650;SDS011;26663;59.302;18.082;2023-07-13T13:37:29;6.30;;;1.63;;
17650;SDS011;26663;59.302;18.082;2023-07-13T13:40:33;3.08;;;1.70;;
17650;SDS011;26663;59.302;18.082;2023-07-13T13:43:37;3.22;;;1.52;;
17650;SDS011;26663;59.302;18.082;2023-07-13T13:46:41;1.95;;;1.60;;
17650;SDS011;26663;59.302;18.082;2023-07-13T13:49:48;2.92;;;1.15;;
17650;SDS011;26663;59.302;18.082;2023-07-13T13:52:52;3.85;;;1.42;;
17650;SDS011;26663;59.302;18.082;2023-07-13T13:55:57;3.17;;;1.88;;
17650;SDS011;26663;59.302;18.082;2023-07-13T13:59:01;6.30;;;1.52;;
17650;SDS011;26663;59.302;18.082;2023-07-13T14:02:11;1.83;;;1.45;;
17650;SDS011;26663;59.302;18.082;2023-07-13T14:05:25;2.97;;;1.40;;
17650;SDS011;26663;59.302;18.082;2023-07-13T14:08:29;6.85;;;1.45;;
17650;SDS011;26663;59.302;18.082;2023-07-13T14:11:34;3.47;;;1.50;;
17650;SDS011;26663;59.302;18.082;2023-07-13T14:14:38;1.38;;;1.27;;
17650;SDS011;26663;59.302;18.082;2023-07-13T14:17:43;3.22;;;1.40;;
17650;SDS011;26663;59.302;18.082;2023-07-13T14:20:49;2.80;;;1.85;;
17650;SDS011;26663;59.302;18.082;2023-07-13T14:23:55;3.55;;;1.50;;
17650;SDS011;26663;59.302;18.082;2023-07-13T14:27:00;5.22;;;1.30;;
17650;SDS011;26663;59.302;18.082;2023-07-13T14:30:08;3.40;;;1.45;;
17650;SDS011;26663;59.302;18.082;2023-07-13T14:33:16;5.10;;;1.77;;
17650;SDS011;26663;59.302;18.082;2023-07-13T14:36:25;5.70;;;1.88;;
17650;SDS011;26663;59.302;18.082;2023-07-13T14:39:31;5.10;;;1.95;;
17650;SDS011;26663;59.302;18.082;2023-07-13T14:42:36;3.15;;;1.55;;
17650;SDS011;26663;59.302;18.082;2023-07-13T14:45:41;4.97;;;1.80;;
17650;SDS011;26663;59.302;18.082;2023-07-13T14:48:45;2.35;;;1.67;;
17650;SDS011;26663;59.302;18.082;2023-07-13T14:51:51;2.33;;;1.70;;
17650;SDS011;26663;59.302;18.082;2023-07-13T14:54:56;3.20;;;1.58;;
17650;SDS011;26663;59.302;18.082;2023-07-13T14:58:00;3.75;;;1.77;;
17650;SDS011;26663;59.302;18.082;2023-07-13T15:01:04;3.80;;;1.77;;
17650;SDS011;26663;59.302;18.082;2023-07-13T15:04:09;4.47;;;2.15;;
17650;SDS011;26663;59.302;18.082;2023-07-13T15:07:15;2.15;;;1.95;;
17650;SDS011;26663;59.302;18.082;2023-07-13T15:10:21;3.55;;;1.95;;
17650;SDS011;26663;59.302;18.082;2023-07-13T15:13:26;7.05;;;4.70;;
17650;SDS011;26663;59.302;18.082;2023-07-13T15:16:31;2.78;;;2.65;;
17650;SDS011;26663;59.302;18.082;2023-07-13T15:19:36;3.22;;;2.00;;
17650;SDS011;26663;59.302;18.082;2023-07-13T15:22:42;6.97;;;2.10;;
17650;SDS011;26663;59.302;18.082;2023-07-13T15:25:46;2.05;;;1.77;;
17650;SDS011;26663;59.302;18.082;2023-07-13T15:28:51;5.68;;;2.22;;
17650;SDS011;26663;59.302;18.082;2023-07-13T15:31:55;2.72;;;2.50;;
17650;SDS011;26663;59.302;18.082;2023-07-13T15:35:00;2.00;;;2.00;;
17650;SDS011;26663;59.302;18.082;2023-07-13T15:38:11;5.85;;;2.22;;
17650;SDS011;26663;59.302;18.082;2023-07-13T15:41:18;3.70;;;2.00;;
17650;SDS011;26663;59.302;18.082;2023-07-13T15:44:26;5.28;;;1.80;;
17650;SDS011;26663;59.302;18.082;2023-07-13T15:47:31;3.10;;;1.67;;
17650;SDS011;26663;59.302;18.082;2023-07-13T15:50:40;2.33;;;2.15;;
17650;SDS011;26663;59.302;18.082;2023-07-13T15:53:47;6.40;;;2.10;;
17650;SDS011;26663;59.302;18.082;2023-07-13T15:56:52;2.00;;;1.90;;
17650;SDS011;26663;59.302;18.082;2023-07-13T15:59:57;2.58;;;2.03;;
17650;SDS011;26663;59.302;18.082;2023-07-13T16:03:02;4.38;;;1.95;;
17650;SDS011;26663;59.302;18.082;2023-07-13T16:06:17;2.75;;;2.10;;
17650;SDS011;26663;59.302;18.082;2023-07-13T16:09:23;2.00;;;1.85;;
17650;SDS011;26663;59.302;18.082;2023-07-13T16:12:28;3.45;;;1.80;;
17650;SDS011;26663;59.302;18.082;2023-07-13T16:15:32;3.80;;;1.70;;
17650;SDS011;26663;59.302;18.082;2023-07-13T16:18:37;1.80;;;1.70;;
17650;SDS011;26663;59.302;18.082;2023-07-13T16:21:43;4.32;;;2.08;;
17650;SDS011;26663;59.302;18.082;2023-07-13T16:24:49;1.95;;;1.60;;
17650;SDS011;26663;59.302;18.082;2023-07-13T16:27:58;5.25;;;2.00;;
17650;SDS011;26663;59.302;18.082;2023-07-13T16:31:03;8.68;;;2.00;;
17650;SDS011;26663;59.302;18.082;2023-07-13T16:34:10;3.50;;;1.50;;
17650;SDS011;26663;59.302;18.082;2023-07-13T16:37:15;5.93;;;1.50;;
17650;SDS011;26663;59.302;18.082;2023-07-13T16:40:23;2.08;;;1.73;;
17650;SDS011;26663;59.302;18.082;2023-07-13T16:43:28;4.25;;;1.90;;
17650;SDS011;26663;59.302;18.082;2023-07-13T16:46:32;5.35;;;1.98;;
17650;SDS011;26663;59.302;18.082;2023-07-13T16:49:37;6.85;;;1.90;;
17650;SDS011;26663;59.302;18.082;2023-07-13T16:52:42;9.52;;;2.20;;
17650;SDS011;26663;59.302;18.082;2023-07-13T16:55:48;2.10;;;2.00;;
17650;SDS011;26663;59.302;18.082;2023-07-13T16:58:52;2.90;;;2.25;;
17650;SDS011;26663;59.302;18.082;2023-07-13T17:01:57;2.38;;;1.90;;
17650;SDS011;26663;59.302;18.082;2023-07-13T17:05:02;3.55;;;1.90;;
17650;SDS011;26663;59.302;18.082;2023-07-13T17:08:11;3.85;;;1.80;;
17650;SDS011;26663;59.302;18.082;2023-07-13T17:11:17;4.53;;;2.15;;
17650;SDS011;26663;59.302;18.082;2023-07-13T17:14:22;3.97;;;1.75;;
17650;SDS011;26663;59.302;18.082;2023-07-13T17:17:31;3.25;;;1.60;;
17650;SDS011;26663;59.302;18.082;2023-07-13T17:20:37;3.20;;;1.88;;
17650;SDS011;26663;59.302;18.082;2023-07-13T17:23:44;1.45;;;1.45;;
17650;SDS011;26663;59.302;18.082;2023-07-13T17:26:51;5.88;;;2.20;;
17650;SDS011;26663;59.302;18.082;2023-07-13T17:29:57;6.20;;;1.83;;
17650;SDS011;26663;59.302;18.082;2023-07-13T17:33:01;3.55;;;1.75;;
17650;SDS011;26663;59.302;18.082;2023-07-13T17:36:10;4.00;;;2.03;;
17650;SDS011;26663;59.302;18.082;2023-07-13T17:39:15;2.28;;;1.80;;
17650;SDS011;26663;59.302;18.082;2023-07-13T17:42:21;2.42;;;2.00;;
17650;SDS011;26663;59.302;18.082;2023-07-13T17:45:27;6.20;;;2.13;;
17650;SDS011;26663;59.302;18.082;2023-07-13T17:48:32;4.03;;;2.53;;
17650;SDS011;26663;59.302;18.082;2023-07-13T17:51:39;3.20;;;2.67;;
17650;SDS011;26663;59.302;18.082;2023-07-13T17:54:43;4.43;;;1.70;;
17650;SDS011;26663;59.302;18.082;2023-07-13T17:57:49;1.70;;;1.60;;
17650;SDS011;26663;59.302;18.082;2023-07-13T18:00:53;2.40;;;1.80;;
17650;SDS011;26663;59.302;18.082;2023-07-13T18:03:59;3.50;;;1.92;;
17650;SDS011;26663;59.302;18.082;2023-07-13T18:07:07;3.08;;;1.70;;
17650;SDS011;26663;59.302;18.082;2023-07-13T18:10:14;4.00;;;1.77;;
17650;SDS011;26663;59.302;18.082;2023-07-13T18:13:20;3.78;;;1.90;;
17650;SDS011;26663;59.302;18.082;2023-07-13T18:16:25;10.98;;;2.22;;
17650;SDS011;26663;59.302;18.082;2023-07-13T18:19:31;3.97;;;1.60;;
17650;SDS011;26663;59.302;18.082;2023-07-13T18:22:36;7.78;;;1.90;;
17650;SDS011;26663;59.302;18.082;2023-07-13T18:25:41;3.78;;;1.75;;
17650;SDS011;26663;59.302;18.082;2023-07-13T18:28:48;4.50;;;1.98;;